• Join FlightAware (Why Join?)
  • Login
  • US Flag 
02:34PM EDT


 

Airport Tracker/Info


-or-


 

Live Flight TrackerFlight Track Log ✈ VH-NDM ✈ 15-Jul-2013 ✈ YBCG / OOL - YCHB

Flight Track Log - Related Links

Times and Time Zones

All times are in EDT time to prevent confusion due to time zone crossing. See the VH-NDM flight status page for this flight to view local times or setup timezone preferences in your user account.

Time Position Orientation Groundspeed Altitude Reporting Facility
EDT Latitude Longitude Course Direction KTS MPH feet Rate Location/Type
07:36PM -28.1749 153.5130 155° Southeast 83 96 400  Level Aus ATC (RADAR)
07:37PM -28.1856 153.5188 155° Southeast 73 84 800 600 Climbing Aus ATC (RADAR)
07:38PM -28.2002 153.5110 205° Southwest 74 85 1,300 540 Climbing Aus ATC (RADAR)
07:39PM -28.1952 153.4860 283° West 81 93 1,800 480 Climbing Aus ATC (RADAR)
07:40PM -28.1867 153.4613 291° West 81 93 2,300 540 Climbing Aus ATC (RADAR)
07:41PM -28.1808 153.4442 291° West 84 97 2,700 480 Climbing Aus ATC (RADAR)
07:42PM -28.1839 153.4149 263° West 87 100 3,200 480 Climbing Aus ATC (RADAR)
07:42PM -28.1864 153.3968 261° West 88 101 3,600 600 Climbing Aus ATC (RADAR)
07:43PM -28.1903 153.3779 257° West 80 92 4,100 600 Climbing Aus ATC (RADAR)
07:44PM -28.1948 153.3527 259° West 81 93 4,700 120 Climbing Aus ATC (RADAR)
07:45PM -28.1915 153.3309 280° West 97 112 4,400 -120 Descending Aus ATC (RADAR)
07:45PM -28.1857 153.3117 289° West 106 122 4,600 360 Climbing Aus ATC (RADAR)
07:46PM -28.1798 153.2818 283° West 98 113 5,000 420 Climbing Aus ATC (RADAR)
07:47PM -28.1837 153.2552 260° West 101 116 5,400 240 Climbing Aus ATC (RADAR)
07:48PM -28.1905 153.2167 259° West 115 132 5,500 60 Climbing Aus ATC (RADAR)
07:52PM -28.2214 153.0764 256° West -1,680 Descending Aus ATC (Calculated)
07:53PM -28.2287 153.0430 256° West  Level FlightAware Approximate
07:54PM -28.2360 153.0096 256° West  Level FlightAware Approximate
07:55PM -28.2433 152.9763 256° West  Level FlightAware Approximate
07:56PM -28.2505 152.9429 256° West  Level FlightAware Approximate
07:57PM -28.2578 152.9095 256° West  Level FlightAware Approximate
07:58PM -28.2651 152.8761 256° West  Level FlightAware Approximate
07:59PM -28.2724 152.8427 256° West  Level FlightAware Approximate
08:00PM -28.2796 152.8093 256° West  Level FlightAware Approximate
08:01PM -28.2869 152.7759 256° West  Level FlightAware Approximate
08:02PM -28.2941 152.7425 256° West  Level FlightAware Approximate
08:03PM -28.3013 152.7091 256° West  Level FlightAware Approximate
08:04PM -28.3085 152.6757 256° West  Level FlightAware Approximate
08:05PM -28.3158 152.6423 256° West  Level FlightAware Approximate
08:06PM -28.3230 152.6089 256° West  Level FlightAware Approximate
08:07PM -28.3302 152.5754 256° West  Level FlightAware Approximate
08:08PM -28.3374 152.5420 256° West  Level FlightAware Approximate
08:08PM -28.3547 152.4614 76° East  Level Aus ATC (Calculated)
08:09PM -28.3445 152.5085 256° West  Level FlightAware Approximate
08:10PM -28.3654 152.4112 256° West  Level FlightAware Approximate
08:11PM -28.3725 152.3778 256° West  Level FlightAware Approximate
08:12PM -28.3797 152.3443 256° West  Level FlightAware Approximate
08:12PM -28.3941 152.2766 256° West  Level Aus ATC (Calculated)
08:14PM -28.4076 152.2130 256° West  Level FlightAware Approximate
08:15PM -28.4147 152.1795 256° West  Level FlightAware Approximate
08:16PM -28.4218 152.1460 256° West  Level FlightAware Approximate
08:17PM -28.4289 152.1125 256° West  Level FlightAware Approximate
08:18PM -28.4360 152.0791 257° West  Level FlightAware Approximate
08:19PM -28.4289 152.1125 77° East  Level FlightAware Approximate
08:20PM -28.4360 152.0791 257° West  Level FlightAware Approximate
08:21PM -28.4289 152.1125 77° East  Level FlightAware Approximate
08:22PM -28.4360 152.0791 257° West  Level FlightAware Approximate
08:23PM -28.4289 152.1125 77° East  Level FlightAware Approximate
08:24PM -28.4360 152.0791 257° West  Level FlightAware Approximate